createdAt,value
2018-03-11T00:00:54.168Z,98014.13
2018-03-11T00:06:58.670Z,98011.30
2018-03-11T00:13:04.154Z,98015.22
2018-03-11T00:19:08.790Z,98016.21
2018-03-11T00:25:13.289Z,98016.33
2018-03-11T00:31:17.919Z,98011.70
2018-03-11T00:37:22.477Z,98015.69
2018-03-11T00:43:27.869Z,98013.01
2018-03-11T00:49:32.367Z,98004.77
2018-03-11T00:55:37.650Z,98001.31
2018-03-11T01:01:42.134Z,98003.30
2018-03-11T01:07:47.661Z,98005.20
2018-03-11T01:13:52.309Z,97994.64
2018-03-11T01:19:57.601Z,97996.63
2018-03-11T01:26:02.096Z,98000.02
2018-03-11T01:32:07.391Z,97989.42
2018-03-11T01:38:12.906Z,97996.33
2018-03-11T01:44:17.482Z,97986.61
2018-03-11T01:50:22.229Z,97989.59
2018-03-11T01:56:27.505Z,97983.47
2018-03-11T02:02:31.997Z,97976.33
2018-03-11T02:08:36.931Z,97966.38
2018-03-11T02:14:41.439Z,97965.05
2018-03-11T02:20:46.567Z,97967.05
2018-03-11T02:26:52.575Z,97963.52
2018-03-11T02:32:57.324Z,97948.45
2018-03-11T02:39:01.847Z,97948.16
2018-03-11T02:45:06.422Z,97942.56
2018-03-11T02:51:11.039Z,97939.98
2018-03-11T02:57:15.606Z,97936.10
2018-03-11T03:03:20.886Z,97932.59
2018-03-11T03:09:25.591Z,97929.52
2018-03-11T03:15:30.168Z,97928.78
2018-03-11T03:21:34.671Z,97917.14
2018-03-11T03:27:39.231Z,97902.11
2018-03-11T03:33:43.802Z,97888.11
2018-03-11T03:39:48.661Z,97871.55
2018-03-11T03:45:53.399Z,97881.06
2018-03-11T03:51:57.884Z,97868.27
2018-03-11T03:58:02.384Z,97859.34
2018-03-11T04:04:06.960Z,97857.22
2018-03-11T04:10:11.475Z,97854.86
2018-03-11T04:16:17.044Z,97852.95
2018-03-11T04:22:21.964Z,97853.39
2018-03-11T04:28:26.475Z,97850.64
2018-03-11T04:34:31.197Z,97850.55
2018-03-11T04:40:36.513Z,97851.94
2018-03-11T04:46:41.072Z,97840.06
2018-03-11T04:52:45.764Z,97851.42
2018-03-11T04:58:51.198Z,97842.59
2018-03-11T05:04:55.739Z,97844.89
2018-03-11T05:11:00.326Z,97841.94
2018-03-11T05:17:04.949Z,97822.20
2018-03-11T05:23:09.516Z,97821.14
2018-03-11T05:29:14.119Z,97831.12
2018-03-11T05:35:19.123Z,97820.27
2018-03-11T05:41:23.960Z,97813.36
2018-03-11T05:47:28.715Z,97808.00
2018-03-11T05:53:33.210Z,97802.38
2018-03-11T05:59:38.664Z,97803.35
2018-03-11T06:05:43.214Z,97790.66
2018-03-11T06:11:47.772Z,97792.43
2018-03-11T06:17:52.640Z,97782.42
2018-03-11T06:23:57.197Z,97782.31
2018-03-11T06:30:01.698Z,97780.72
2018-03-11T06:36:06.190Z,97775.95
2018-03-11T06:42:10.662Z,97788.64
2018-03-11T06:48:16.187Z,97786.27
2018-03-11T06:54:20.771Z,97798.68
2018-03-11T07:00:25.320Z,97792.55
2018-03-11T07:06:29.858Z,97790.23
2018-03-11T07:12:34.365Z,97783.08
2018-03-11T07:18:38.831Z,97779.20
2018-03-11T07:24:44.128Z,97765.18
2018-03-11T07:30:48.723Z,97753.78
2018-03-11T07:36:53.269Z,97722.16
2018-03-11T07:42:57.770Z,97736.86
2018-03-11T07:49:02.254Z,97723.06
2018-03-11T07:55:06.745Z,97723.70
2018-03-11T08:01:11.315Z,97721.06
2018-03-11T08:07:15.991Z,97704.47
2018-03-11T08:13:22.306Z,97700.73
2018-03-11T08:19:26.836Z,97686.30
2018-03-11T08:25:31.415Z,97681.25
2018-03-11T08:31:35.955Z,97679.47
2018-03-11T08:37:41.337Z,97676.95
2018-03-11T08:43:47.154Z,97665.69
2018-03-11T08:49:51.747Z,97680.66
2018-03-11T08:55:56.999Z,97691.90
2018-03-11T09:02:01.503Z,97690.67
2018-03-11T09:08:06.001Z,97700.72
2018-03-11T09:14:10.491Z,97683.73
2018-03-11T09:20:15.764Z,97680.38
2018-03-11T09:26:21.631Z,97678.31
2018-03-11T09:32:26.944Z,97664.17
2018-03-11T09:38:31.419Z,97651.42
2018-03-11T09:44:35.988Z,97660.72
2018-03-11T09:50:40.482Z,97662.70
2018-03-11T09:56:44.985Z,97667.53
2018-03-11T10:02:50.227Z,97690.22
2018-03-11T10:08:54.783Z,97688.25
2018-03-11T10:15:00.051Z,97657.07
2018-03-11T10:21:04.618Z,97641.74
2018-03-11T10:27:09.201Z,97641.89
2018-03-11T10:33:15.023Z,97635.27
2018-03-11T10:39:19.666Z,97632.78
2018-03-11T10:45:24.357Z,97616.17
2018-03-11T10:51:28.842Z,97588.23
2018-03-11T10:57:34.187Z,97604.80
2018-03-11T11:03:38.854Z,97583.91
2018-03-11T11:09:43.376Z,97584.87
2018-03-11T11:15:47.971Z,97589.83
2018-03-11T11:21:52.719Z,97586.44
2018-03-11T11:27:57.246Z,97577.52
2018-03-11T11:34:01.885Z,97577.69
2018-03-11T11:40:06.545Z,97569.69
2018-03-11T11:46:11.928Z,97564.41
2018-03-11T11:52:16.492Z,97556.81
2018-03-11T11:58:22.055Z,97552.90
2018-03-11T12:04:26.569Z,97549.92
2018-03-11T12:10:31.205Z,97532.69
2018-03-11T12:16:35.695Z,97511.22
2018-03-11T12:22:40.238Z,97509.25
2018-03-11T12:28:44.684Z,97492.45
2018-03-11T12:34:49.367Z,97485.91
2018-03-11T12:40:54.647Z,97483.39
2018-03-11T12:46:59.151Z,97482.86
2018-03-11T12:53:03.657Z,97460.53
2018-03-11T12:59:08.130Z,97440.54
2018-03-11T13:05:13.411Z,97437.92
2018-03-11T13:11:19.472Z,97429.69
2018-03-11T13:17:24.273Z,97423.20
2018-03-11T13:23:28.806Z,97425.79
2018-03-11T13:29:33.331Z,97409.95
2018-03-11T13:35:37.971Z,97400.40
2018-03-11T13:41:42.751Z,97401.63
2018-03-11T13:47:47.698Z,97402.45
2018-03-11T13:53:53.868Z,97392.09
2018-03-11T13:59:58.471Z,97385.58
2018-03-11T14:06:03.099Z,97370.05
2018-03-11T14:12:08.431Z,97359.91
2018-03-11T14:18:12.893Z,97356.84
2018-03-11T14:24:17.366Z,97348.25
2018-03-11T14:30:21.958Z,97339.47
2018-03-11T14:36:27.250Z,97330.10
2018-03-11T14:42:31.731Z,97319.83
2018-03-11T14:48:36.210Z,97307.27
2018-03-11T14:54:40.875Z,97301.69
2018-03-11T15:00:45.422Z,97288.09
2018-03-11T15:06:50.199Z,97285.40
2018-03-11T15:12:54.828Z,97283.22
2018-03-11T15:18:59.301Z,97273.00
2018-03-11T15:25:04.538Z,97265.17
2018-03-11T15:31:09.118Z,97265.75
2018-03-11T15:37:13.616Z,97261.70
2018-03-11T15:43:19.750Z,97259.61
2018-03-11T15:49:24.530Z,97264.26
2018-03-11T15:55:29.019Z,97274.12
2018-03-11T16:01:34.416Z,97285.05
2018-03-11T16:07:39.805Z,97280.48
2018-03-11T16:13:45.104Z,97282.84
2018-03-11T16:19:50.594Z,97290.40
2018-03-11T16:25:55.141Z,97299.03
2018-03-11T16:31:59.618Z,97294.57
2018-03-11T16:38:04.110Z,97301.30
2018-03-11T16:44:08.569Z,97299.06
2018-03-11T16:50:13.038Z,97305.59
2018-03-11T16:56:18.010Z,97303.28
2018-03-11T17:02:22.943Z,97302.64
2018-03-11T17:08:27.419Z,97303.48
2018-03-11T17:14:32.698Z,97307.17
2018-03-11T17:20:37.404Z,97307.91
2018-03-11T17:26:42.774Z,97307.29
2018-03-11T17:32:47.350Z,97316.51
2018-03-11T17:38:51.887Z,97318.14
2018-03-11T17:44:57.186Z,97319.98
2018-03-11T17:51:01.583Z,97324.42
2018-03-11T17:57:06.239Z,97318.53
2018-03-11T18:03:10.767Z,97317.75
2018-03-11T18:09:15.388Z,97305.77
2018-03-11T18:15:20.912Z,97314.84
2018-03-11T18:21:26.182Z,97311.92
2018-03-11T18:27:30.678Z,97320.97
2018-03-11T18:33:35.114Z,97320.84
2018-03-11T18:39:39.574Z,97317.06
2018-03-11T18:45:44.042Z,97319.36
2018-03-11T18:51:50.124Z,97315.97
2018-03-11T18:57:55.376Z,97319.38
2018-03-11T19:03:59.888Z,97321.38
2018-03-11T19:10:04.444Z,97322.06
2018-03-11T19:16:08.962Z,97317.22
2018-03-11T19:22:13.456Z,97323.28
2018-03-11T19:28:18.899Z,97326.37
2018-03-11T19:34:23.595Z,97319.09
2018-03-11T19:40:28.069Z,97323.66
2018-03-11T19:46:33.330Z,97318.39
2018-03-11T19:52:37.810Z,97321.13
2018-03-11T19:58:42.294Z,97320.84
2018-03-11T20:04:47.218Z,97324.63
2018-03-11T20:10:52.169Z,97328.14
2018-03-11T20:16:56.645Z,97323.13
2018-03-11T20:23:01.109Z,97317.62
2018-03-11T20:29:05.680Z,97317.46
2018-03-11T20:35:10.198Z,97312.64
2018-03-11T20:41:15.809Z,97313.84
2018-03-11T20:47:21.725Z,97314.11
2018-03-11T20:53:27.005Z,97310.45
2018-03-11T20:59:32.245Z,97298.62
2018-03-11T21:05:36.761Z,97300.39
2018-03-11T21:11:41.238Z,97299.09
2018-03-11T21:17:47.707Z,97309.41
2018-03-11T21:23:52.347Z,97303.91
2018-03-11T21:29:56.858Z,97296.80
2018-03-11T21:36:02.170Z,97293.16
2018-03-11T21:42:06.647Z,97283.56
2018-03-11T21:48:11.139Z,97277.58
2018-03-11T21:54:15.846Z,97269.48
2018-03-11T22:00:21.064Z,97271.48
2018-03-11T22:06:25.667Z,97269.65
2018-03-11T22:12:30.953Z,97264.27
2018-03-11T22:18:35.532Z,97265.00
2018-03-11T22:24:39.997Z,97254.89
2018-03-11T22:30:44.487Z,97250.86
2018-03-11T22:36:49.873Z,97252.47
2018-03-11T22:42:54.429Z,97253.58
2018-03-11T22:48:58.888Z,97252.41
2018-03-11T22:55:04.187Z,97250.09
2018-03-11T23:01:08.727Z,97257.64
2018-03-11T23:07:13.207Z,97248.44
2018-03-11T23:13:18.993Z,97251.06
2018-03-11T23:19:23.607Z,97250.34
2018-03-11T23:25:29.541Z,97250.89
2018-03-11T23:31:33.954Z,97251.28
2018-03-11T23:37:38.357Z,97246.56
2018-03-11T23:43:43.726Z,97242.72
2018-03-11T23:49:48.439Z,97250.19
2018-03-11T23:55:52.909Z,97247.91
